Vulcan, Canada
Current Conditions -  °F | °C
As of 10:00 AM on Friday 19 Dec 2014 (Local Time) from CYQL Reporting Station
Broken Clouds Broken Clouds  
Wind Chill: 23°   Ceiling: 15000
Heat Index: 32°   Visibility: 40mi
Dew Point: 28°   Wind: 13mph
Humidity: 87%   Direction: 190°S
Pressure: 29.74"   Gusts: 21mph
Location:  50.4°N, 113.25°W
Report Text: CYQL 191700Z 19011G18KT 40SM FEW060 BKN150 BKN250 00/M02 A2974 RMK SC1AC4CI2 SLP107
Loading
Personal Weather Stations






























Interactive Weather Map New forecast layout! Learn more

10-Day Weather Forecast

Advertisements
Track Severe Weather on mobile